createdAt,value
2022-11-24T00:01:29.892Z,5.20
2022-11-24T00:03:57.678Z,5.60
2022-11-24T00:06:25.630Z,5.40
2022-11-24T00:08:53.157Z,4.70
2022-11-24T00:11:25.995Z,5.43
2022-11-24T00:13:53.769Z,5.20
2022-11-24T00:16:23.617Z,5.07
2022-11-24T00:18:52.476Z,5.80
2022-11-24T00:21:20.253Z,5.30
2022-11-24T00:23:48.068Z,5.83
2022-11-24T00:26:18.669Z,4.50
2022-11-24T00:28:47.570Z,4.10
2022-11-24T00:31:26.129Z,4.07
2022-11-24T00:33:55.466Z,3.93
2022-11-24T00:36:23.799Z,3.53
2022-11-24T00:38:55.674Z,4.93
2022-11-24T00:41:24.208Z,3.53
2022-11-24T00:43:51.375Z,5.23
2022-11-24T00:46:18.666Z,3.87
2022-11-24T00:48:46.219Z,4.20
2022-11-24T00:51:15.430Z,5.23
2022-11-24T00:53:42.475Z,4.70
2022-11-24T00:56:10.141Z,3.80
2022-11-24T00:58:37.343Z,4.93
2022-11-24T01:01:08.709Z,4.13
2022-11-24T01:03:35.606Z,4.30
2022-11-24T01:06:07.428Z,3.93
2022-11-24T01:08:36.338Z,3.70
2022-11-24T01:11:19.346Z,4.10
2022-11-24T01:13:48.252Z,4.17
2022-11-24T01:16:28.383Z,4.20
2022-11-24T01:18:55.158Z,4.40
2022-11-24T01:21:22.242Z,4.20
2022-11-24T01:23:49.331Z,3.93
2022-11-24T01:26:19.002Z,3.83
2022-11-24T01:28:47.335Z,3.57
2022-11-24T01:31:15.590Z,4.60
2022-11-24T01:33:42.425Z,4.00
2022-11-24T01:36:09.262Z,4.40
2022-11-24T01:38:36.143Z,3.77
2022-11-24T01:41:06.450Z,3.77
2022-11-24T01:43:35.019Z,3.93
2022-11-24T01:46:24.633Z,4.23
2022-11-24T01:49:11.505Z,3.20
2022-11-24T01:51:47.633Z,3.70
2022-11-24T01:54:47.066Z,3.93
2022-11-24T01:57:23.395Z,3.37
2022-11-24T01:59:55.012Z,3.03
2022-11-24T02:02:28.372Z,3.07
2022-11-24T02:04:57.648Z,3.87
2022-11-24T02:07:25.769Z,3.93
2022-11-24T02:09:56.726Z,3.20
2022-11-24T02:12:26.443Z,3.50
2022-11-24T02:14:55.054Z,3.30
2022-11-24T02:17:22.305Z,3.07
2022-11-24T02:19:57.829Z,3.60
2022-11-24T02:22:33.703Z,3.40
2022-11-24T02:25:42.338Z,2.90
2022-11-24T02:28:14.086Z,3.50
2022-11-24T02:30:41.189Z,3.00
2022-11-24T02:33:08.146Z,2.57
2022-11-24T02:35:34.999Z,3.47
2022-11-24T02:38:01.766Z,2.43
2022-11-24T02:40:30.859Z,3.30
2022-11-24T02:43:09.509Z,3.03
2022-11-24T02:45:36.310Z,3.17
2022-11-24T02:48:03.032Z,2.50
2022-11-24T02:50:29.747Z,2.97
2022-11-24T02:52:56.631Z,3.70
2022-11-24T02:55:23.650Z,2.43
2022-11-24T02:57:50.546Z,3.20
2022-11-24T03:00:18.135Z,3.17
2022-11-24T03:02:45.005Z,2.60
2022-11-24T03:05:12.771Z,3.10
2022-11-24T03:07:39.578Z,2.87
2022-11-24T03:10:06.890Z,3.47
2022-11-24T03:12:33.714Z,3.17
2022-11-24T03:15:00.560Z,3.10
2022-11-24T03:17:27.253Z,1.97
2022-11-24T03:19:54.000Z,4.20
2022-11-24T03:22:20.734Z,2.97
2022-11-24T03:24:47.467Z,3.57
2022-11-24T03:27:14.539Z,3.73
2022-11-24T03:29:41.371Z,3.27
2022-11-24T03:32:08.110Z,3.17
2022-11-24T03:34:35.108Z,3.57
2022-11-24T03:37:02.139Z,3.10
2022-11-24T03:39:29.539Z,3.07
2022-11-24T03:41:56.259Z,3.97
2022-11-24T03:44:23.053Z,3.50
2022-11-24T03:46:50.952Z,3.33
2022-11-24T03:49:17.963Z,2.80
2022-11-24T03:51:44.801Z,3.27
2022-11-24T03:54:11.758Z,3.53
2022-11-24T03:56:38.569Z,3.50
2022-11-24T03:59:05.522Z,3.53
2022-11-24T04:01:32.363Z,2.87
2022-11-24T04:03:59.167Z,3.50
2022-11-24T04:06:25.909Z,2.90
2022-11-24T04:08:52.618Z,3.33
2022-11-24T04:11:37.803Z,3.23
2022-11-24T04:14:09.109Z,3.20
2022-11-24T04:16:38.787Z,2.93
2022-11-24T04:19:06.504Z,3.53
2022-11-24T04:21:33.214Z,3.43
2022-11-24T04:23:59.945Z,3.33
2022-11-24T04:26:26.718Z,3.50
2022-11-24T04:28:53.558Z,2.60
2022-11-24T04:31:20.429Z,3.53
2022-11-24T04:33:47.201Z,3.83
2022-11-24T04:36:14.147Z,3.13
2022-11-24T04:39:24.196Z,2.60
2022-11-24T04:41:27.566Z,3.43
2022-11-24T04:43:54.346Z,3.23
2022-11-24T04:46:24.003Z,4.03
2022-11-24T04:48:50.859Z,3.13
2022-11-24T04:51:17.603Z,3.30
2022-11-24T04:53:44.383Z,3.93
2022-11-24T04:56:11.079Z,3.63
2022-11-24T04:58:37.811Z,3.37
2022-11-24T05:01:08.397Z,3.60
2022-11-24T05:03:36.482Z,3.57
2022-11-24T05:06:03.345Z,3.30
2022-11-24T05:08:30.134Z,3.37
2022-11-24T05:10:56.891Z,3.53
2022-11-24T05:13:23.694Z,3.20
2022-11-24T05:15:50.458Z,3.13
2022-11-24T05:18:17.211Z,3.37
2022-11-24T05:20:46.810Z,3.87
2022-11-24T05:23:13.650Z,3.43
2022-11-24T05:25:44.855Z,3.17
2022-11-24T05:28:14.221Z,4.27
2022-11-24T05:30:41.468Z,3.60
2022-11-24T05:33:12.079Z,3.63
2022-11-24T05:35:38.883Z,3.40
2022-11-24T05:38:05.669Z,3.47
2022-11-24T05:40:32.697Z,2.80
2022-11-24T05:42:59.556Z,3.53
2022-11-24T05:45:26.595Z,3.13
2022-11-24T05:47:54.268Z,2.87
2022-11-24T05:50:22.355Z,2.90
2022-11-24T05:52:49.974Z,2.10
2022-11-24T05:55:17.037Z,2.83
2022-11-24T05:57:43.858Z,2.23
2022-11-24T06:00:11.644Z,2.20
2022-11-24T06:02:41.870Z,2.67
2022-11-24T06:05:09.123Z,2.83
2022-11-24T06:07:36.176Z,2.73
2022-11-24T06:10:03.084Z,2.70
2022-11-24T06:12:29.810Z,3.03
2022-11-24T06:14:56.547Z,2.47
2022-11-24T06:17:23.361Z,2.60
2022-11-24T06:19:51.637Z,2.60
2022-11-24T06:22:21.439Z,2.40
2022-11-24T06:24:50.192Z,2.10
2022-11-24T06:27:17.348Z,2.77
2022-11-24T06:29:44.090Z,3.50
2022-11-24T06:32:10.970Z,2.80
2022-11-24T06:34:37.667Z,2.67
2022-11-24T06:37:04.503Z,3.90
2022-11-24T06:39:31.343Z,3.93
2022-11-24T06:41:58.201Z,5.27
2022-11-24T06:44:24.940Z,3.83
2022-11-24T06:46:51.805Z,4.37
2022-11-24T06:49:18.703Z,4.60
2022-11-24T06:51:45.651Z,5.93
2022-11-24T06:54:17.562Z,5.80
2022-11-24T06:56:44.551Z,5.40
2022-11-24T06:59:17.888Z,6.33
2022-11-24T07:01:45.296Z,6.20
2022-11-24T07:04:12.147Z,6.27
2022-11-24T07:06:41.676Z,6.77
2022-11-24T07:09:13.625Z,7.17
2022-11-24T07:11:41.202Z,7.17
2022-11-24T07:14:08.397Z,7.47
2022-11-24T07:16:35.448Z,8.87
2022-11-24T07:19:02.423Z,9.07
2022-11-24T07:21:30.800Z,9.67
2022-11-24T07:23:58.386Z,9.60
2022-11-24T07:26:25.826Z,10.67
2022-11-24T07:28:52.767Z,10.67
2022-11-24T07:31:21.843Z,9.07
2022-11-24T07:33:52.758Z,8.00
2022-11-24T07:36:19.815Z,8.43
2022-11-24T07:38:46.919Z,7.43
2022-11-24T07:41:15.510Z,7.80
2022-11-24T07:43:42.230Z,8.40
2022-11-24T07:46:15.272Z,7.57
2022-11-24T07:48:42.156Z,7.20
2022-11-24T07:51:09.701Z,7.33
2022-11-24T07:53:37.699Z,7.50
2022-11-24T07:56:06.514Z,8.10
2022-11-24T07:58:35.978Z,9.80
2022-11-24T08:01:29.451Z,7.47
2022-11-24T08:03:56.281Z,8.07
2022-11-24T08:06:28.600Z,7.57
2022-11-24T08:08:57.910Z,9.13
2022-11-24T08:11:25.233Z,9.43
2022-11-24T08:13:52.139Z,9.87
2022-11-24T08:16:20.111Z,8.87
2022-11-24T08:18:52.135Z,8.17
2022-11-24T08:21:19.656Z,7.63
2022-11-24T08:23:46.565Z,7.57
2022-11-24T08:26:17.472Z,8.00
2022-11-24T08:28:45.536Z,7.60
2022-11-24T08:31:18.892Z,8.27
2022-11-24T08:33:46.491Z,7.63
2022-11-24T08:36:15.635Z,6.60
2022-11-24T08:38:42.558Z,7.63
2022-11-24T08:41:12.919Z,7.20
2022-11-24T08:43:40.544Z,7.53
2022-11-24T08:46:09.651Z,6.93
2022-11-24T08:48:37.201Z,6.33
2022-11-24T08:51:14.852Z,6.83
2022-11-24T08:53:42.348Z,6.80
2022-11-24T08:56:10.676Z,6.40
2022-11-24T08:58:38.004Z,6.57
2022-11-24T09:01:07.259Z,6.60
2022-11-24T09:03:34.576Z,7.10
2022-11-24T09:06:02.372Z,6.90
2022-11-24T09:08:33.271Z,6.10
2022-11-24T09:11:05.522Z,6.53
2022-11-24T09:13:32.797Z,5.93
2022-11-24T09:16:12.210Z,6.07
2022-11-24T09:18:39.190Z,5.67
2022-11-24T09:21:15.241Z,6.20
2022-11-24T09:23:42.982Z,5.70
2022-11-24T09:26:13.706Z,4.93
2022-11-24T09:28:41.089Z,5.10
2022-11-24T09:31:11.358Z,5.23
2022-11-24T09:33:38.388Z,5.40
2022-11-24T09:36:06.190Z,5.33
2022-11-24T09:38:32.930Z,5.00
2022-11-24T09:41:18.282Z,5.13
2022-11-24T09:44:03.268Z,5.17
2022-11-24T09:46:43.342Z,5.30
2022-11-24T09:49:17.713Z,4.50
2022-11-24T09:51:49.221Z,4.07
2022-11-24T09:54:25.044Z,4.50
2022-11-24T09:56:52.355Z,5.13
2022-11-24T09:59:22.159Z,4.40
2022-11-24T10:01:51.066Z,5.07
2022-11-24T10:04:39.169Z,5.20
2022-11-24T10:07:26.352Z,4.97
2022-11-24T10:10:03.263Z,4.10
2022-11-24T10:12:54.878Z,4.57
2022-11-24T10:15:37.177Z,4.30
2022-11-24T10:18:37.896Z,4.83
2022-11-24T10:21:13.031Z,4.60
2022-11-24T10:24:04.734Z,4.20
2022-11-24T10:26:39.142Z,4.07
2022-11-24T10:29:36.525Z,4.23
2022-11-24T10:32:11.690Z,4.00
2022-11-24T10:34:47.027Z,4.03
2022-11-24T10:37:21.215Z,4.07
2022-11-24T10:40:17.214Z,4.03
2022-11-24T10:42:55.839Z,3.90
2022-11-24T10:45:23.051Z,3.37
2022-11-24T10:47:50.649Z,4.20
2022-11-24T10:50:22.616Z,4.50
2022-11-24T10:52:56.044Z,4.20
2022-11-24T10:55:22.731Z,3.90
2022-11-24T10:57:49.480Z,3.87
2022-11-24T11:00:19.244Z,3.83
2022-11-24T11:02:50.500Z,3.80
2022-11-24T11:05:32.061Z,4.17
2022-11-24T11:08:10.290Z,3.57
2022-11-24T11:10:37.226Z,4.60
2022-11-24T11:13:24.028Z,4.10
2022-11-24T11:15:51.122Z,4.77
2022-11-24T11:18:19.907Z,4.10
2022-11-24T11:20:57.925Z,4.80
2022-11-24T11:23:35.940Z,4.13
2022-11-24T11:26:33.211Z,3.93
2022-11-24T11:35:12.588Z,4.20
2022-11-24T11:37:39.548Z,4.33
2022-11-24T11:40:20.477Z,4.40
2022-11-24T11:43:05.293Z,3.70
2022-11-24T11:45:36.179Z,4.30
2022-11-24T11:48:03.117Z,4.47
2022-11-24T11:53:48.440Z,4.10
2022-11-24T11:56:36.460Z,4.57
2022-11-24T11:59:22.110Z,3.63
2022-11-24T12:02:02.804Z,2.87
2022-11-24T12:04:52.424Z,3.73
2022-11-24T12:07:38.092Z,3.97
2022-11-24T12:10:22.818Z,3.80
2022-11-24T12:13:06.901Z,3.63
2022-11-24T12:15:54.559Z,3.80
2022-11-24T12:18:56.475Z,3.50
2022-11-24T12:21:33.188Z,3.07
2022-11-24T12:24:23.101Z,3.70
2022-11-24T12:27:16.766Z,4.13
2022-11-24T12:29:59.836Z,4.20
2022-11-24T12:32:35.951Z,4.13
2022-11-24T12:35:14.967Z,4.10
2022-11-24T12:38:05.565Z,3.93
2022-11-24T12:41:33.631Z,4.50
2022-11-24T12:43:52.599Z,3.80
2022-11-24T12:46:21.115Z,4.80
2022-11-24T12:48:53.253Z,3.77
2022-11-24T12:51:27.297Z,3.60
2022-11-24T12:53:59.797Z,3.57
2022-11-24T12:56:41.200Z,3.67
2022-11-24T12:59:26.475Z,3.37
2022-11-24T13:02:17.509Z,3.77
2022-11-24T13:04:55.326Z,3.77
2022-11-24T13:07:46.262Z,3.07
2022-11-24T13:10:55.266Z,3.80
2022-11-24T13:13:14.340Z,3.40
2022-11-24T13:18:55.894Z,3.60
2022-11-24T13:21:50.940Z,3.60
2022-11-24T13:24:18.740Z,3.77
2022-11-24T13:26:55.387Z,3.73
2022-11-24T13:29:28.472Z,3.27
2022-11-24T13:32:05.031Z,3.40
2022-11-24T13:35:02.176Z,3.20
2022-11-24T13:37:35.547Z,3.53
2022-11-24T13:40:23.023Z,3.40
2022-11-24T13:42:56.210Z,3.40
2022-11-24T13:45:41.903Z,4.63
2022-11-24T13:48:21.453Z,5.10
2022-11-24T13:50:54.792Z,3.93
2022-11-24T13:53:40.430Z,4.23
2022-11-24T13:56:21.293Z,3.57
2022-11-24T13:58:54.997Z,3.57
2022-11-24T14:01:23.931Z,4.00
2022-11-24T14:04:34.201Z,3.40
2022-11-24T14:07:09.374Z,3.37
2022-11-24T14:09:45.046Z,3.10
2022-11-24T14:12:17.855Z,3.37
2022-11-24T14:14:47.158Z,3.20
2022-11-24T14:17:17.715Z,4.03
2022-11-24T14:19:47.464Z,3.23
2022-11-24T14:22:25.385Z,3.57
2022-11-24T14:25:00.844Z,3.10
2022-11-24T14:27:34.930Z,2.97
2022-11-24T14:30:05.629Z,4.27
2022-11-24T14:32:32.474Z,3.40
2022-11-24T14:34:59.538Z,3.77
2022-11-24T14:37:26.434Z,3.33
2022-11-24T14:39:53.236Z,3.50
2022-11-24T14:42:27.349Z,2.93
2022-11-24T14:44:58.566Z,3.80
2022-11-24T14:47:31.287Z,3.27
2022-11-24T14:50:08.225Z,3.17
2022-11-24T14:52:35.799Z,2.70
2022-11-24T14:55:21.353Z,3.70
2022-11-24T14:57:48.985Z,3.23
2022-11-24T15:00:24.231Z,3.13
2022-11-24T15:03:13.519Z,3.00
2022-11-24T15:05:58.520Z,3.00
2022-11-24T15:08:27.496Z,4.60
2022-11-24T15:11:02.620Z,3.93
2022-11-24T15:13:33.476Z,2.90
2022-11-24T15:16:03.883Z,3.00
2022-11-24T15:18:41.898Z,3.20
2022-11-24T15:21:12.948Z,3.27
2022-11-24T15:24:05.909Z,3.00
2022-11-24T15:26:38.303Z,3.80
2022-11-24T15:29:08.723Z,3.90
2022-11-24T15:31:35.747Z,3.97
2022-11-24T15:34:02.532Z,3.33
2022-11-24T15:36:29.510Z,3.47
2022-11-24T15:38:56.273Z,4.07
2022-11-24T15:41:28.147Z,3.53
2022-11-24T15:44:00.786Z,4.17
2022-11-24T15:46:29.417Z,4.23
2022-11-24T15:48:56.427Z,4.33
2022-11-24T15:51:26.075Z,4.37
2022-11-24T15:54:00.401Z,3.47
2022-11-24T15:56:35.653Z,3.80
2022-11-24T15:59:03.699Z,3.77
2022-11-24T16:01:32.679Z,3.97
2022-11-24T16:04:00.516Z,3.60
2022-11-24T16:06:27.221Z,5.07
2022-11-24T16:08:54.685Z,3.80
2022-11-24T16:11:22.836Z,3.90
2022-11-24T16:13:53.262Z,4.07
2022-11-24T16:16:21.788Z,3.90
2022-11-24T16:18:48.690Z,3.80
2022-11-24T16:21:15.596Z,3.67
2022-11-24T16:23:42.415Z,4.50
2022-11-24T16:26:10.263Z,3.70
2022-11-24T16:28:40.719Z,4.70
2022-11-24T16:31:07.752Z,4.50
2022-11-24T16:33:34.715Z,4.40
2022-11-24T16:36:01.460Z,4.10
2022-11-24T16:38:28.288Z,4.00
2022-11-24T16:40:56.428Z,4.13
2022-11-24T16:43:24.537Z,3.13
2022-11-24T16:46:17.171Z,3.53
2022-11-24T16:48:45.541Z,4.47
2022-11-24T16:51:13.637Z,4.13
2022-11-24T16:53:40.941Z,4.60
2022-11-24T16:56:08.547Z,3.93
2022-11-24T16:58:38.269Z,4.73
2022-11-24T17:01:12.449Z,4.90
2022-11-24T17:03:40.173Z,4.70
2022-11-24T17:06:09.913Z,4.93
2022-11-24T17:08:39.411Z,5.43
2022-11-24T17:11:18.083Z,5.37
2022-11-24T17:13:46.965Z,4.40
2022-11-24T17:16:16.034Z,5.20
2022-11-24T17:18:43.793Z,5.63
2022-11-24T17:21:16.830Z,4.97
2022-11-24T17:23:43.830Z,5.10
2022-11-24T17:26:12.986Z,5.30
2022-11-24T17:28:40.293Z,4.50
2022-11-24T17:31:09.098Z,5.47
2022-11-24T17:33:36.447Z,5.30
2022-11-24T17:36:06.638Z,4.23
2022-11-24T17:38:35.057Z,4.50
2022-11-24T17:41:02.740Z,5.33
2022-11-24T17:43:29.493Z,5.50
2022-11-24T17:45:59.162Z,5.27
2022-11-24T17:48:26.295Z,5.23
2022-11-24T17:50:59.833Z,5.30
2022-11-24T17:53:27.214Z,4.27
2022-11-24T17:55:54.017Z,4.60
2022-11-24T17:58:20.926Z,4.50
2022-11-24T18:00:49.917Z,4.50
2022-11-24T18:03:16.766Z,5.20
2022-11-24T18:05:43.578Z,3.93
2022-11-24T18:08:12.054Z,4.67
2022-11-24T18:10:39.086Z,4.30
2022-11-24T18:13:06.072Z,4.27
2022-11-24T18:15:36.277Z,4.57
2022-11-24T18:18:04.243Z,5.03
2022-11-24T18:20:32.634Z,4.63
2022-11-24T18:23:05.918Z,3.90
2022-11-24T18:25:37.133Z,4.10
2022-11-24T18:28:04.103Z,4.17
2022-11-24T18:30:30.923Z,4.00
2022-11-24T18:32:58.588Z,4.27
2022-11-24T18:35:25.300Z,4.37
2022-11-24T18:37:52.085Z,3.90
2022-11-24T18:40:19.190Z,3.83
2022-11-24T18:42:45.982Z,4.00
2022-11-24T18:45:12.762Z,4.07
2022-11-24T18:47:39.609Z,4.70
2022-11-24T18:50:07.230Z,3.90
2022-11-24T18:52:34.017Z,3.83
2022-11-24T18:55:03.953Z,4.17
2022-11-24T18:57:33.944Z,3.57
2022-11-24T19:00:00.798Z,4.23
2022-11-24T19:02:27.559Z,4.03
2022-11-24T19:04:54.338Z,4.17
2022-11-24T19:07:21.165Z,4.23
2022-11-24T19:09:48.008Z,11.13
2022-11-24T19:12:14.874Z,3.80
2022-11-24T19:14:41.700Z,3.37
2022-11-24T19:17:08.753Z,3.63
2022-11-24T19:19:35.986Z,3.87
2022-11-24T19:22:03.644Z,4.03
2022-11-24T19:24:30.488Z,3.80
2022-11-24T19:26:57.427Z,4.00
2022-11-24T19:29:24.248Z,3.57
2022-11-24T19:31:51.068Z,3.97
2022-11-24T19:34:17.949Z,4.03
2022-11-24T19:36:44.766Z,3.97
2022-11-24T19:39:16.149Z,4.27
2022-11-24T19:41:42.925Z,3.43
2022-11-24T19:44:11.622Z,4.23
2022-11-24T19:46:39.783Z,3.90
2022-11-24T19:49:10.039Z,3.40
2022-11-24T19:51:38.599Z,3.73
2022-11-24T19:54:07.691Z,4.23
2022-11-24T19:56:36.547Z,3.63
2022-11-24T19:59:05.437Z,3.57
2022-11-24T20:01:37.226Z,4.00
2022-11-24T20:04:11.448Z,3.67
2022-11-24T20:06:40.942Z,3.70
2022-11-24T20:09:10.563Z,4.00
2022-11-24T20:11:37.760Z,3.20
2022-11-24T20:14:06.161Z,3.77
2022-11-24T20:16:34.805Z,3.47
2022-11-24T20:19:08.634Z,4.00
2022-11-24T20:21:36.947Z,3.97
2022-11-24T20:24:11.002Z,3.83
2022-11-24T20:26:40.773Z,3.43
2022-11-24T20:29:09.961Z,3.23
2022-11-24T20:31:40.212Z,3.37
2022-11-24T20:34:08.013Z,3.57
2022-11-24T20:36:36.896Z,3.60
2022-11-24T20:39:08.090Z,3.40
2022-11-24T20:41:36.416Z,2.77
2022-11-24T20:44:07.320Z,3.40
2022-11-24T20:46:36.763Z,3.77
2022-11-24T20:49:04.902Z,3.63
2022-11-24T20:51:35.398Z,3.60
2022-11-24T20:54:04.958Z,3.10
2022-11-24T20:56:36.570Z,3.07
2022-11-24T20:59:04.664Z,3.63
2022-11-24T21:01:35.124Z,3.83
2022-11-24T21:04:03.026Z,3.23
2022-11-24T21:06:30.736Z,3.60
2022-11-24T21:09:03.475Z,3.57
2022-11-24T21:11:31.827Z,3.77
2022-11-24T21:13:59.427Z,3.30
2022-11-24T21:16:29.563Z,3.17
2022-11-24T21:18:59.377Z,3.40
2022-11-24T21:21:33.266Z,3.40
2022-11-24T21:24:06.065Z,3.53
2022-11-24T21:26:37.822Z,3.60
2022-11-24T21:29:05.375Z,3.63
2022-11-24T21:31:36.503Z,4.30
2022-11-24T21:34:04.354Z,4.33
2022-11-24T21:36:33.032Z,3.93
2022-11-24T21:38:59.976Z,3.50
2022-11-24T21:41:28.211Z,3.70
2022-11-24T21:43:55.959Z,3.30
2022-11-24T21:46:22.818Z,3.57
2022-11-24T21:48:49.844Z,3.30
2022-11-24T21:51:19.020Z,3.37
2022-11-24T21:53:46.731Z,4.10
2022-11-24T21:56:16.878Z,3.80
2022-11-24T21:58:51.409Z,3.60
2022-11-24T22:01:20.153Z,4.00
2022-11-24T22:03:47.181Z,3.37
2022-11-24T22:06:15.296Z,2.83
2022-11-24T22:08:42.112Z,3.37
2022-11-24T22:11:18.155Z,3.27
2022-11-24T22:13:45.130Z,3.67
2022-11-24T22:16:17.612Z,3.40
2022-11-24T22:18:45.333Z,3.60
2022-11-24T22:21:15.664Z,3.50
2022-11-24T22:23:42.737Z,7.33
2022-11-24T22:26:12.735Z,3.03
2022-11-24T22:28:40.171Z,2.83
2022-11-24T22:31:28.073Z,3.30
2022-11-24T22:33:55.892Z,3.30
2022-11-24T22:36:25.142Z,3.37
2022-11-24T22:39:03.867Z,3.70
2022-11-24T22:41:32.355Z,3.17
2022-11-24T22:43:59.350Z,3.13
2022-11-24T22:46:28.023Z,2.97
2022-11-24T22:48:57.646Z,4.57
2022-11-24T22:51:29.884Z,3.80
2022-11-24T22:54:00.135Z,3.80
2022-11-24T22:56:32.484Z,3.77
2022-11-24T22:59:04.525Z,3.73
2022-11-24T23:01:33.650Z,3.47
2022-11-24T23:04:01.168Z,3.13
2022-11-24T23:06:30.232Z,3.87
2022-11-24T23:08:58.470Z,3.77
2022-11-24T23:11:36.316Z,3.67
2022-11-24T23:14:05.428Z,3.20
2022-11-24T23:16:32.303Z,3.67
2022-11-24T23:18:59.106Z,3.40
2022-11-24T23:21:28.280Z,3.30
2022-11-24T23:23:55.340Z,3.23
2022-11-24T23:26:27.541Z,4.03
2022-11-24T23:28:54.686Z,3.83
2022-11-24T23:31:24.502Z,3.33
2022-11-24T23:33:51.313Z,3.33
2022-11-24T23:36:19.964Z,3.37
2022-11-24T23:38:47.546Z,3.70
2022-11-24T23:41:16.946Z,4.17
2022-11-24T23:43:44.302Z,2.93
2022-11-24T23:46:14.866Z,3.40
2022-11-24T23:48:41.966Z,4.20
2022-11-24T23:51:15.454Z,3.50
2022-11-24T23:53:42.858Z,3.40
2022-11-24T23:56:12.161Z,3.40
2022-11-24T23:58:39.274Z,3.83
